createdAt,value
2023-04-12T00:00:13.782Z,57.57
2023-04-12T00:02:42.492Z,56.50
2023-04-12T00:05:11.743Z,57.10
2023-04-12T00:07:40.558Z,56.53
2023-04-12T00:10:10.371Z,56.60
2023-04-12T00:12:38.424Z,55.87
2023-04-12T00:15:08.336Z,54.63
2023-04-12T00:17:37.994Z,54.70
2023-04-12T00:20:12.114Z,53.83
2023-04-12T00:22:41.510Z,53.33
2023-04-12T00:25:10.384Z,53.60
2023-04-12T00:27:39.241Z,52.87
2023-04-12T00:30:09.464Z,53.43
2023-04-12T00:32:39.031Z,53.73
2023-04-12T00:35:08.156Z,54.27
2023-04-12T00:37:38.781Z,53.83
2023-04-12T00:40:10.014Z,53.53
2023-04-12T00:42:38.714Z,54.63
2023-04-12T00:45:08.357Z,53.50
2023-04-12T00:47:40.497Z,54.77
2023-04-12T00:50:10.022Z,55.10
2023-04-12T00:52:39.222Z,54.60
2023-04-12T00:55:09.439Z,55.20
2023-04-12T00:57:40.141Z,54.13
2023-04-12T01:00:11.992Z,54.10
2023-04-12T01:02:42.686Z,56.10
2023-04-12T01:05:14.916Z,58.03
2023-04-12T01:07:54.236Z,62.67
2023-04-12T01:10:33.300Z,70.07
2023-04-12T01:13:09.131Z,76.53
2023-04-12T01:15:42.561Z,78.33
2023-04-12T01:18:17.817Z,79.80
2023-04-12T01:20:54.942Z,77.73
2023-04-12T01:23:44.800Z,81.67
2023-04-12T01:26:34.493Z,84.20
2023-04-12T01:29:10.708Z,85.20
2023-04-12T01:31:42.043Z,86.03
2023-04-12T01:34:12.271Z,86.30
2023-04-12T01:36:42.240Z,86.93
2023-04-12T01:39:11.609Z,85.57
2023-04-12T01:41:45.386Z,82.90
2023-04-12T01:44:16.412Z,83.43
2023-04-12T01:46:46.857Z,82.30
2023-04-12T01:49:16.746Z,78.57
2023-04-12T01:51:52.252Z,75.93
2023-04-12T01:54:23.596Z,77.00
2023-04-12T01:56:59.001Z,79.87
2023-04-12T01:59:33.233Z,77.63
2023-04-12T02:02:01.294Z,80.77
2023-04-12T02:04:30.380Z,78.97
2023-04-12T02:06:58.874Z,82.17
2023-04-12T02:09:27.474Z,80.83
2023-04-12T02:11:56.509Z,81.50
2023-04-12T02:14:24.551Z,81.97
2023-04-12T02:16:54.968Z,79.97
2023-04-12T02:19:23.256Z,80.00
2023-04-12T02:21:52.265Z,79.70
2023-04-12T02:24:20.627Z,80.87
2023-04-12T02:26:49.807Z,78.40
2023-04-12T02:29:18.061Z,71.17
2023-04-12T02:31:48.573Z,67.97
2023-04-12T02:34:19.564Z,64.03
2023-04-12T02:36:53.171Z,62.43
2023-04-12T02:39:22.383Z,60.70
2023-04-12T02:41:52.707Z,60.03
2023-04-12T02:44:21.448Z,58.17
2023-04-12T02:47:05.878Z,57.30
2023-04-12T02:49:36.693Z,57.40
2023-04-12T02:52:06.171Z,54.33
2023-04-12T02:54:42.374Z,54.03
2023-04-12T02:57:16.794Z,53.43
2023-04-12T02:59:47.664Z,51.37
2023-04-12T03:02:28.289Z,50.83
2023-04-12T03:05:03.550Z,50.47
2023-04-12T03:07:42.132Z,48.50
2023-04-12T03:10:12.840Z,47.33
2023-04-12T03:12:53.077Z,48.07
2023-04-12T03:15:23.542Z,46.57
2023-04-12T03:17:53.757Z,45.20
2023-04-12T03:20:28.421Z,43.87
2023-04-12T03:23:08.861Z,42.20
2023-04-12T03:25:41.054Z,41.37
2023-04-12T03:28:32.375Z,41.93
2023-04-12T03:31:03.101Z,41.77
2023-04-12T03:33:51.659Z,41.27
2023-04-12T03:36:29.574Z,40.77
2023-04-12T03:39:06.029Z,41.63
2023-04-12T03:41:36.432Z,41.47
2023-04-12T03:44:06.604Z,41.27
2023-04-12T03:46:36.469Z,40.97
2023-04-12T03:49:09.163Z,41.73
2023-04-12T03:51:43.189Z,40.40
2023-04-12T03:54:13.025Z,41.60
2023-04-12T03:56:52.272Z,41.97
2023-04-12T03:59:26.224Z,41.57
2023-04-12T04:01:55.545Z,41.33
2023-04-12T04:04:25.311Z,42.37
2023-04-12T04:06:58.862Z,45.27
2023-04-12T04:09:29.447Z,46.90
2023-04-12T04:11:58.364Z,48.53
2023-04-12T04:14:27.841Z,50.40
2023-04-12T04:16:56.447Z,52.17
2023-04-12T04:19:24.579Z,52.40
2023-04-12T04:21:52.768Z,53.20
2023-04-12T04:24:22.527Z,53.63
2023-04-12T04:26:54.918Z,54.70
2023-04-12T04:29:27.175Z,57.50
2023-04-12T04:31:57.581Z,57.03
2023-04-12T04:34:26.591Z,58.50
2023-04-12T04:37:02.236Z,57.77
2023-04-12T04:39:31.902Z,58.10
2023-04-12T04:42:00.812Z,59.07
2023-04-12T04:44:37.352Z,58.33
2023-04-12T04:47:08.765Z,59.13
2023-04-12T04:49:37.322Z,59.83
2023-04-12T04:52:20.989Z,60.37
2023-04-12T04:54:52.001Z,58.37
2023-04-12T04:57:21.205Z,59.43
2023-04-12T04:59:49.544Z,59.23
2023-04-12T05:02:18.845Z,59.43
2023-04-12T05:04:46.840Z,58.47
2023-04-12T05:07:18.490Z,59.70
2023-04-12T05:09:48.428Z,59.43
2023-04-12T05:12:18.963Z,59.40
2023-04-12T05:14:51.976Z,59.60
2023-04-12T05:17:20.482Z,59.43
2023-04-12T05:19:48.620Z,59.13
2023-04-12T05:22:20.471Z,56.07
2023-04-12T05:24:48.719Z,56.40
2023-04-12T05:27:19.038Z,58.40
2023-04-12T05:29:49.017Z,56.87
2023-04-12T05:32:19.816Z,56.40
2023-04-12T05:34:48.134Z,56.27
2023-04-12T05:37:16.622Z,54.83
2023-04-12T05:39:44.686Z,55.90
2023-04-12T05:42:13.840Z,55.90
2023-04-12T05:44:46.515Z,56.57
2023-04-12T05:47:16.399Z,58.13
2023-04-12T05:49:44.537Z,58.53
2023-04-12T05:52:13.474Z,58.40
2023-04-12T05:54:41.854Z,57.20
2023-04-12T05:57:14.041Z,56.57
2023-04-12T05:59:42.301Z,56.33
2023-04-12T06:02:12.209Z,54.17
2023-04-12T06:04:50.059Z,53.13
2023-04-12T06:07:20.076Z,52.67
2023-04-12T06:09:49.855Z,52.97
2023-04-12T06:12:18.721Z,52.20
2023-04-12T06:14:47.785Z,50.40
2023-04-12T06:17:17.298Z,51.17
2023-04-12T06:19:45.618Z,49.37
2023-04-12T06:22:13.654Z,49.03
2023-04-12T06:24:42.738Z,48.87
2023-04-12T06:27:12.390Z,47.80
2023-04-12T06:29:40.495Z,47.27
2023-04-12T06:32:09.000Z,46.57
2023-04-12T06:34:38.470Z,46.40
2023-04-12T06:37:12.914Z,47.97
2023-04-12T06:39:41.022Z,46.60
2023-04-12T06:42:09.029Z,44.20
2023-04-12T06:44:40.908Z,45.07
2023-04-12T06:47:09.512Z,42.57
2023-04-12T06:49:39.440Z,41.43
2023-04-12T06:52:07.392Z,41.83
2023-04-12T06:54:37.722Z,42.80
2023-04-12T06:57:10.284Z,40.93
2023-04-12T06:59:38.446Z,43.47
2023-04-12T07:02:07.873Z,42.73
2023-04-12T07:04:36.236Z,42.53
2023-04-12T07:07:05.738Z,42.03
2023-04-12T07:09:33.972Z,42.93
2023-04-12T07:12:02.412Z,41.80
2023-04-12T07:14:30.854Z,42.20
2023-04-12T07:16:58.953Z,39.03
2023-04-12T07:19:26.964Z,38.73
2023-04-12T07:21:54.928Z,38.93
2023-04-12T07:24:24.433Z,38.23
2023-04-12T07:26:54.341Z,36.30
2023-04-12T07:29:22.366Z,37.03
2023-04-12T07:31:50.423Z,34.53
2023-04-12T07:34:18.603Z,36.37
2023-04-12T07:36:46.801Z,36.00
2023-04-12T07:39:14.952Z,36.20
2023-04-12T07:41:46.563Z,34.90
2023-04-12T07:44:14.560Z,32.87
2023-04-12T07:46:43.065Z,33.03
2023-04-12T07:49:11.612Z,34.10
2023-04-12T07:51:39.659Z,33.27
2023-04-12T07:54:07.759Z,34.13
2023-04-12T07:56:36.641Z,33.57
2023-04-12T07:59:06.120Z,33.33
2023-04-12T08:01:34.225Z,31.73
2023-04-12T08:04:02.798Z,30.00
2023-04-12T08:06:33.705Z,29.63
2023-04-12T08:09:02.336Z,27.33
2023-04-12T08:11:30.412Z,28.57
2023-04-12T08:13:58.735Z,29.50
2023-04-12T08:16:28.463Z,28.57
2023-04-12T08:18:56.526Z,28.73
2023-04-12T08:21:25.013Z,28.83
2023-04-12T08:23:52.966Z,30.30
2023-04-12T08:26:21.314Z,31.57
2023-04-12T08:28:49.475Z,30.63
2023-04-12T08:31:17.934Z,29.63
2023-04-12T08:33:47.348Z,29.80
2023-04-12T08:36:15.767Z,30.33
2023-04-12T08:38:46.116Z,28.73
2023-04-12T08:41:15.416Z,26.63
2023-04-12T08:43:47.471Z,25.40
2023-04-12T08:46:16.973Z,25.23
2023-04-12T08:48:47.794Z,25.53
2023-04-12T08:51:17.403Z,25.23
2023-04-12T08:53:45.760Z,25.07
2023-04-12T08:56:15.389Z,24.97
2023-04-12T08:58:48.993Z,22.00
2023-04-12T09:01:18.098Z,20.20
2023-04-12T09:03:47.787Z,19.10
2023-04-12T09:06:16.216Z,19.90
2023-04-12T09:08:54.767Z,18.17
2023-04-12T09:11:24.573Z,20.70
2023-04-12T09:13:53.143Z,17.93
2023-04-12T09:16:36.279Z,16.60
2023-04-12T09:19:06.199Z,17.83
2023-04-12T09:21:35.242Z,17.07
2023-04-12T09:24:04.684Z,17.23
2023-04-12T09:26:32.709Z,16.60
2023-04-12T09:29:01.089Z,16.40
2023-04-12T09:31:29.202Z,14.97
2023-04-12T09:34:09.646Z,14.00
2023-04-12T09:36:41.144Z,12.83
2023-04-12T09:39:09.757Z,13.60
2023-04-12T09:41:37.747Z,14.97
2023-04-12T09:44:05.827Z,14.00
2023-04-12T09:46:34.887Z,14.00
2023-04-12T09:49:03.732Z,14.23
2023-04-12T09:51:36.605Z,13.83
2023-04-12T09:54:06.893Z,14.40
2023-04-12T09:56:36.753Z,15.03
2023-04-12T09:59:07.158Z,14.80
2023-04-12T10:01:36.932Z,14.17
2023-04-12T10:04:07.464Z,12.67
2023-04-12T10:06:37.507Z,12.50
2023-04-12T10:09:06.816Z,11.17
2023-04-12T10:11:35.385Z,12.07
2023-04-12T10:14:04.550Z,12.00
2023-04-12T10:16:35.317Z,12.23
2023-04-12T10:19:04.906Z,11.90
2023-04-12T10:21:33.129Z,10.83
2023-04-12T10:24:02.956Z,10.87
2023-04-12T10:26:31.644Z,11.63
2023-04-12T10:29:24.776Z,11.07
2023-04-12T10:31:53.055Z,10.50
2023-04-12T10:34:25.976Z,10.37
2023-04-12T10:36:56.180Z,10.00
2023-04-12T10:39:40.970Z,10.00
2023-04-12T10:42:21.577Z,10.10
2023-04-12T10:44:50.399Z,9.90
2023-04-12T10:47:18.585Z,10.77
2023-04-12T10:50:20.009Z,9.70
2023-04-12T10:53:25.893Z,9.90
2023-04-12T10:55:55.536Z,10.17
2023-04-12T10:59:01.785Z,9.60
2023-04-12T11:01:36.739Z,9.47
2023-04-12T11:04:15.258Z,8.63
2023-04-12T11:06:52.493Z,7.40
2023-04-12T11:09:42.029Z,7.77
2023-04-12T11:12:16.756Z,7.87
2023-04-12T11:14:46.861Z,8.20
2023-04-12T11:17:26.284Z,7.93
2023-04-12T11:19:57.574Z,8.47
2023-04-12T11:22:28.907Z,8.83
2023-04-12T11:24:58.820Z,8.10
2023-04-12T11:27:32.017Z,8.30
2023-04-12T11:30:02.007Z,8.43
2023-04-12T11:32:32.325Z,8.33
2023-04-12T11:35:00.497Z,7.50
2023-04-12T11:37:33.290Z,7.93
2023-04-12T11:40:01.509Z,8.27
2023-04-12T11:42:30.987Z,8.40
2023-04-12T11:45:04.037Z,8.47
2023-04-12T11:47:35.006Z,7.73
2023-04-12T11:50:03.139Z,7.43
2023-04-12T11:52:33.804Z,7.30
2023-04-12T11:55:05.216Z,8.30
2023-04-12T11:57:35.420Z,8.30
2023-04-12T12:00:06.752Z,7.43
2023-04-12T12:02:49.299Z,7.60
2023-04-12T12:05:37.179Z,7.70
2023-04-12T12:08:08.006Z,7.70
2023-04-12T12:10:49.162Z,8.83
2023-04-12T12:13:27.187Z,8.37
2023-04-12T12:15:55.420Z,8.30
2023-04-12T12:18:28.988Z,8.17
2023-04-12T12:20:57.128Z,7.50
2023-04-12T12:23:30.506Z,7.17
2023-04-12T12:26:14.297Z,8.60
2023-04-12T12:28:50.844Z,7.93
2023-04-12T12:31:21.204Z,7.50
2023-04-12T12:33:49.808Z,8.03
2023-04-12T12:36:20.968Z,7.50
2023-04-12T12:38:51.451Z,7.17
2023-04-12T12:41:21.625Z,7.63
2023-04-12T12:43:53.202Z,7.20
2023-04-12T12:46:21.877Z,7.78
2023-04-12T12:48:50.053Z,7.75
2023-04-12T12:51:19.938Z,7.47
2023-04-12T12:53:48.272Z,7.35
2023-04-12T12:56:17.230Z,7.75
2023-04-12T12:58:45.491Z,7.75
2023-04-12T13:01:14.937Z,6.78
2023-04-12T13:03:43.061Z,7.22
2023-04-12T13:06:11.505Z,7.60
2023-04-12T13:08:39.552Z,7.43
2023-04-12T13:11:08.451Z,7.50
2023-04-12T13:13:36.571Z,7.80
2023-04-12T13:16:05.022Z,7.00
2023-04-12T13:18:34.466Z,7.25
2023-04-12T13:21:02.650Z,7.57
2023-04-12T13:23:30.864Z,6.90
2023-04-12T13:25:59.074Z,7.50
2023-04-12T13:28:27.079Z,7.40
2023-04-12T13:30:55.106Z,7.45
2023-04-12T13:33:23.303Z,7.47
2023-04-12T13:35:52.768Z,7.57
2023-04-12T13:38:21.077Z,7.13
2023-04-12T13:40:49.161Z,8.57
2023-04-12T13:43:17.146Z,9.38
2023-04-12T13:45:45.185Z,7.15
2023-04-12T13:48:13.281Z,7.05
2023-04-12T13:50:41.397Z,7.70
2023-04-12T13:53:10.918Z,7.03
2023-04-12T13:55:38.921Z,7.00
2023-04-12T13:58:07.009Z,7.82
2023-04-12T14:00:35.370Z,7.25
2023-04-12T14:03:03.760Z,6.80
2023-04-12T14:05:32.022Z,7.03
2023-04-12T14:08:00.094Z,6.78
2023-04-12T14:10:29.489Z,6.60
2023-04-12T14:12:57.544Z,7.07
2023-04-12T14:15:25.936Z,6.83
2023-04-12T14:17:54.196Z,6.73
2023-04-12T14:20:23.885Z,7.17
2023-04-12T14:22:52.184Z,7.07
2023-04-12T14:25:21.487Z,7.50
2023-04-12T14:27:50.927Z,6.77
2023-04-12T14:30:19.251Z,21.13
2023-04-12T14:32:48.087Z,8.00
2023-04-12T14:35:16.851Z,8.10
2023-04-12T14:37:45.739Z,8.65
2023-04-12T14:40:14.905Z,8.40
2023-04-12T14:42:43.253Z,9.30
2023-04-12T14:45:13.208Z,9.27
2023-04-12T14:47:41.580Z,9.90
2023-04-12T14:50:10.198Z,9.93
2023-04-12T14:52:38.263Z,9.57
2023-04-12T14:55:07.445Z,10.27
2023-04-12T14:57:35.864Z,10.47
2023-04-12T15:00:04.612Z,10.33
2023-04-12T15:02:34.215Z,10.73
2023-04-12T15:05:07.426Z,9.83
2023-04-12T15:07:36.006Z,9.70
2023-04-12T15:10:04.951Z,9.48
2023-04-12T15:12:33.592Z,9.77
2023-04-12T15:15:05.368Z,9.95
2023-04-12T15:17:35.719Z,15.18
2023-04-12T15:20:09.349Z,9.23
2023-04-12T15:22:37.722Z,9.65
2023-04-12T15:25:06.806Z,9.45
2023-04-12T15:27:34.968Z,9.90
2023-04-12T15:30:04.017Z,8.82
2023-04-12T15:32:36.305Z,8.90
2023-04-12T15:35:22.756Z,8.18
2023-04-12T15:37:55.155Z,8.65
2023-04-12T15:40:24.516Z,7.82
2023-04-12T15:42:52.700Z,8.45
2023-04-12T15:45:20.773Z,7.93
2023-04-12T15:47:48.925Z,8.18
2023-04-12T15:50:19.135Z,7.45
2023-04-12T15:52:47.598Z,8.38
2023-04-12T15:55:17.058Z,8.05
2023-04-12T15:57:45.296Z,8.48
2023-04-12T16:00:21.070Z,8.10
2023-04-12T16:02:53.713Z,7.93
2023-04-12T16:05:24.621Z,8.55
2023-04-12T16:07:52.680Z,8.73
2023-04-12T16:10:22.505Z,8.88
2023-04-12T16:12:54.041Z,8.70
2023-04-12T16:15:22.489Z,8.60
2023-04-12T16:17:53.276Z,8.50
2023-04-12T16:20:23.476Z,8.68
2023-04-12T16:22:55.114Z,9.27
2023-04-12T16:25:24.235Z,11.25
2023-04-12T16:27:52.354Z,8.70
2023-04-12T16:30:20.790Z,9.65
2023-04-12T16:32:49.336Z,9.32
2023-04-12T16:35:18.109Z,9.82
2023-04-12T16:37:48.193Z,8.80
2023-04-12T16:40:17.316Z,8.82
2023-04-12T16:42:46.035Z,8.57
2023-04-12T16:45:15.319Z,9.45
2023-04-12T16:47:43.570Z,8.93
2023-04-12T16:50:13.566Z,8.95
2023-04-12T16:52:42.064Z,8.63
2023-04-12T16:55:12.442Z,8.55
2023-04-12T16:57:41.717Z,8.60
2023-04-12T17:00:19.580Z,8.60
2023-04-12T17:02:49.957Z,6.93
2023-04-12T17:05:19.948Z,8.23
2023-04-12T17:07:49.909Z,8.45
2023-04-12T17:10:21.107Z,7.88
2023-04-12T17:12:50.638Z,8.18
2023-04-12T17:15:21.003Z,7.47
2023-04-12T17:17:50.393Z,8.55
2023-04-12T17:20:19.971Z,9.07
2023-04-12T17:22:48.456Z,8.98
2023-04-12T17:25:18.726Z,8.43
2023-04-12T17:27:49.375Z,8.40
2023-04-12T17:30:17.879Z,8.18
2023-04-12T17:32:48.384Z,9.05
2023-04-12T17:35:17.905Z,9.13
2023-04-12T17:37:46.400Z,8.45
2023-04-12T17:40:15.439Z,8.43
2023-04-12T17:42:45.011Z,8.33
2023-04-12T17:45:14.822Z,8.30
2023-04-12T17:47:43.933Z,8.20
2023-04-12T17:50:13.340Z,9.37
2023-04-12T17:52:42.447Z,8.90
2023-04-12T17:55:12.510Z,11.30
2023-04-12T17:57:40.816Z,9.83
2023-04-12T18:00:11.940Z,9.73
2023-04-12T18:02:44.724Z,10.43
2023-04-12T18:05:13.414Z,9.93
2023-04-12T18:07:42.525Z,10.23
2023-04-12T18:10:12.625Z,11.10
2023-04-12T18:12:41.048Z,11.70
2023-04-12T18:15:10.367Z,10.70
2023-04-12T18:17:39.754Z,11.43
2023-04-12T18:20:11.539Z,10.33
2023-04-12T18:22:40.004Z,11.93
2023-04-12T18:25:09.030Z,11.20
2023-04-12T18:27:37.052Z,11.43
2023-04-12T18:30:05.806Z,12.10
2023-04-12T18:32:33.841Z,13.03
2023-04-12T18:35:02.099Z,12.47
2023-04-12T18:37:31.935Z,13.37
2023-04-12T18:40:00.512Z,15.27
2023-04-12T18:42:28.543Z,14.50
2023-04-12T18:44:58.281Z,14.60
2023-04-12T18:47:27.282Z,15.67
2023-04-12T18:49:56.518Z,15.93
2023-04-12T18:52:24.683Z,15.97
2023-04-12T18:54:54.023Z,19.40
2023-04-12T18:57:23.134Z,16.83
2023-04-12T18:59:51.502Z,16.07
2023-04-12T19:02:19.829Z,15.53
2023-04-12T19:04:48.358Z,17.37
2023-04-12T19:07:16.370Z,19.50
2023-04-12T19:09:44.379Z,18.70
2023-04-12T19:12:13.787Z,20.87
2023-04-12T19:14:41.841Z,20.90
2023-04-12T19:17:10.533Z,21.67
2023-04-12T19:19:38.648Z,23.37
2023-04-12T19:22:06.806Z,23.87
2023-04-12T19:24:35.059Z,23.60
2023-04-12T19:27:03.658Z,23.80
2023-04-12T19:29:33.084Z,24.33
2023-04-12T19:32:02.262Z,26.03
2023-04-12T19:34:30.487Z,27.47
2023-04-12T19:36:58.855Z,27.13
2023-04-12T19:39:27.005Z,28.30
2023-04-12T19:41:55.018Z,29.77
2023-04-12T19:44:23.326Z,32.00
2023-04-12T19:46:52.948Z,31.73
2023-04-12T19:49:22.178Z,33.80
2023-04-12T19:51:50.832Z,32.90
2023-04-12T19:54:23.402Z,36.53
2023-04-12T19:56:52.640Z,35.37
2023-04-12T19:59:21.053Z,35.00
2023-04-12T20:01:49.173Z,36.53
2023-04-12T20:04:20.263Z,36.67
2023-04-12T20:06:50.471Z,36.90
2023-04-12T20:09:18.722Z,35.77
2023-04-12T20:11:46.864Z,36.33
2023-04-12T20:14:15.018Z,36.57
2023-04-12T20:16:45.360Z,36.03
2023-04-12T20:19:13.537Z,36.80
2023-04-12T20:21:47.496Z,38.00
2023-04-12T20:24:15.833Z,38.17
2023-04-12T20:26:46.572Z,38.97
2023-04-12T20:29:15.097Z,39.13
2023-04-12T20:31:43.402Z,40.13
2023-04-12T20:34:11.451Z,41.30
2023-04-12T20:36:39.485Z,44.37
2023-04-12T20:39:08.854Z,44.43
2023-04-12T20:41:38.243Z,45.77
2023-04-12T20:44:06.572Z,45.60
2023-04-12T20:46:36.925Z,46.47
2023-04-12T20:49:06.779Z,47.43
2023-04-12T20:51:34.854Z,46.33
2023-04-12T20:54:03.306Z,50.00
2023-04-12T20:56:32.675Z,48.93
2023-04-12T20:59:02.457Z,49.07
2023-04-12T21:01:30.629Z,50.77
2023-04-12T21:03:59.814Z,49.83
2023-04-12T21:06:28.390Z,50.37
2023-04-12T21:08:56.764Z,51.50
2023-04-12T21:11:25.052Z,50.87
2023-04-12T21:13:54.398Z,51.50
2023-04-12T21:16:24.999Z,50.70
2023-04-12T21:18:53.433Z,48.83
2023-04-12T21:21:21.635Z,49.07
2023-04-12T21:23:51.463Z,50.03
2023-04-12T21:26:20.912Z,48.60
2023-04-12T21:28:48.908Z,50.97
2023-04-12T21:31:18.838Z,52.23
2023-04-12T21:33:46.873Z,51.13
2023-04-12T21:36:15.150Z,52.53
2023-04-12T21:38:43.337Z,51.13
2023-04-12T21:41:13.077Z,49.93
2023-04-12T21:43:41.630Z,50.73
2023-04-12T21:46:10.024Z,51.87
2023-04-12T21:48:39.430Z,50.90
2023-04-12T21:51:08.320Z,50.50
2023-04-12T21:53:36.362Z,50.83
2023-04-12T21:56:04.433Z,52.10
2023-04-12T21:58:34.189Z,51.93
2023-04-12T22:01:02.669Z,51.67
2023-04-12T22:03:30.988Z,52.47
2023-04-12T22:06:04.726Z,52.20
2023-04-12T22:08:34.252Z,54.20
2023-04-12T22:11:02.535Z,54.47
2023-04-12T22:13:30.895Z,52.90
2023-04-12T22:16:00.813Z,54.30
2023-04-12T22:18:29.690Z,53.17
2023-04-12T22:20:58.058Z,53.13
2023-04-12T22:23:27.501Z,52.67
2023-04-12T22:25:58.649Z,53.60
2023-04-12T22:28:26.761Z,55.70
2023-04-12T22:30:57.175Z,54.83
2023-04-12T22:33:25.356Z,55.97
2023-04-12T22:35:53.428Z,56.10
2023-04-12T22:38:21.492Z,56.13
2023-04-12T22:40:51.158Z,55.47
2023-04-12T22:43:21.096Z,55.33
2023-04-12T22:45:49.398Z,54.70
2023-04-12T22:48:17.468Z,55.33
2023-04-12T22:50:45.850Z,56.40
2023-04-12T22:53:14.110Z,55.80
2023-04-12T22:55:42.325Z,55.43
2023-04-12T22:58:11.803Z,56.20
2023-04-12T23:00:39.881Z,56.27
2023-04-12T23:03:10.902Z,56.43
2023-04-12T23:05:41.482Z,57.83
2023-04-12T23:08:10.441Z,58.30
2023-04-12T23:10:38.825Z,59.87
2023-04-12T23:13:07.749Z,58.93
2023-04-12T23:15:37.629Z,59.97
2023-04-12T23:18:05.874Z,60.90
2023-04-12T23:20:35.855Z,60.30
2023-04-12T23:23:04.033Z,60.57
2023-04-12T23:25:39.465Z,63.13
2023-04-12T23:28:12.978Z,63.47
2023-04-12T23:30:47.786Z,64.23
2023-04-12T23:33:18.257Z,63.57
2023-04-12T23:35:47.488Z,64.73
2023-04-12T23:38:23.227Z,64.50
2023-04-12T23:40:53.902Z,66.40
2023-04-12T23:43:22.604Z,64.90
2023-04-12T23:45:53.091Z,67.80
2023-04-12T23:48:21.769Z,67.50
2023-04-12T23:50:50.108Z,69.03
2023-04-12T23:53:19.735Z,66.97
2023-04-12T23:55:49.585Z,65.03
2023-04-12T23:58:18.253Z,65.60
